Airfield :
LOGIN :

Register | Disclaimer

   EN    FR    IT 

 










Legend :    VFR   Marginal VFR   IFR   Intensive IFR   Very Intensive IFR
Visi :
Ceiling :
>= 8 km
>= 3000ft
5 to 8 km
1000 to 3000 ft
1500m to 5 km
500 to 1000 ft
800 to 1500m
200 to 500 ft
< 800m
< 200 ft
Symbols :   Thunderstorms  Fog  Heavy snow  Heavy precipitations  Wind > 20 kt
SIGMETs :     Misc.  Thunderstorms  Icing  Turbulence  Mountain Waves  Volcanic Ashes






- Airport Elevation : 22 ft
- IATA code : TUN


DTTA - Tunis Carthage

CURRENT METAR :
  • 050700Z 30008KT 260V330 9999 SCT030TCU BKN040 20/16 Q1007

EXPIRED METARs :
  • 050630Z 30006KT 250V330 9999 SCT030TCU BKN040 20/16 Q1007
  • 050600Z 28007KT 250V320 9999 SCT030TCU BKN040 20/16 Q1007
  • 050530Z 33006KT 300V360 9999 SCT030TCU 20/16 Q1007
  • 050500Z 29010KT 260V330 9999 SCT030TCU 20/16 Q1007

TAF TAF DTTA
Valid from the 05 at 06:00 until the 06 at 06:00 UTC


050500Z 0506/0606 31008KT 9999 SCT030TCU
BECMG 0507/0509 30015KT 9999 SCT020 SCT26TCU
TEMPO 0507/0514 31017G27KT 4000 TS SHRA FEW033CB
BECMG 0512/0514 30020G33KT 9999 SCT026 0518/0520 27012KT



MET'MAP, your aeronautical weather chart ! - Copyright ORBIFLY December 2007 - Disclaimer

ORBIFLY MET'MAP TEAM :

Programming & Development : Alexandra Zaïnal
Concept & original design : Baudouin d'Aumeries
Assistance for programming : Marc-Olivier Méhu
Technical & hardware support : Manuel Goepfert

Contact : metmap@orbifly.com




SOURCES & CREDITS :

   NOAA